sensor_id;sensor_type;location;lat;lon;timestamp;P1;durP1;ratioP1;P2;durP2;ratioP2
30185;SDS011;31152;49.190;8.122;2023-12-20T00:01:05;18.00;;;9.55;;
30185;SDS011;31152;49.190;8.122;2023-12-20T00:03:32;13.95;;;8.45;;
30185;SDS011;31152;49.190;8.122;2023-12-20T00:06:08;16.27;;;9.13;;
30185;SDS011;31152;49.190;8.122;2023-12-20T00:08:35;16.98;;;9.55;;
30185;SDS011;31152;49.190;8.122;2023-12-20T00:11:02;14.10;;;8.73;;
30185;SDS011;31152;49.190;8.122;2023-12-20T00:13:31;14.55;;;8.63;;
30185;SDS011;31152;49.190;8.122;2023-12-20T00:15:58;15.10;;;8.27;;
30185;SDS011;31152;49.190;8.122;2023-12-20T00:18:27;13.68;;;8.27;;
30185;SDS011;31152;49.190;8.122;2023-12-20T00:20:54;14.65;;;9.18;;
30185;SDS011;31152;49.190;8.122;2023-12-20T00:23:21;14.18;;;8.20;;
30185;SDS011;31152;49.190;8.122;2023-12-20T00:25:49;11.93;;;7.63;;
30185;SDS011;31152;49.190;8.122;2023-12-20T00:28:16;15.18;;;8.50;;
30185;SDS011;31152;49.190;8.122;2023-12-20T00:30:43;13.15;;;8.00;;
30185;SDS011;31152;49.190;8.122;2023-12-20T00:33:10;13.95;;;8.40;;
30185;SDS011;31152;49.190;8.122;2023-12-20T00:35:39;15.43;;;8.50;;
30185;SDS011;31152;49.190;8.122;2023-12-20T00:38:06;17.40;;;8.70;;
30185;SDS011;31152;49.190;8.122;2023-12-20T00:40:33;16.92;;;9.02;;
30185;SDS011;31152;49.190;8.122;2023-12-20T00:43:00;15.43;;;9.38;;
30185;SDS011;31152;49.190;8.122;2023-12-20T00:45:26;16.65;;;8.63;;
30185;SDS011;31152;49.190;8.122;2023-12-20T00:47:56;14.93;;;8.02;;
30185;SDS011;31152;49.190;8.122;2023-12-20T00:50:22;13.65;;;8.82;;
30185;SDS011;31152;49.190;8.122;2023-12-20T00:52:53;16.10;;;8.98;;
30185;SDS011;31152;49.190;8.122;2023-12-20T00:55:24;15.98;;;9.82;;
30185;SDS011;31152;49.190;8.122;2023-12-20T00:57:51;15.07;;;8.77;;
30185;SDS011;31152;49.190;8.122;2023-12-20T01:00:22;17.83;;;9.00;;
30185;SDS011;31152;49.190;8.122;2023-12-20T01:02:48;16.73;;;9.48;;
30185;SDS011;31152;49.190;8.122;2023-12-20T01:05:17;16.77;;;9.02;;
30185;SDS011;31152;49.190;8.122;2023-12-20T01:07:45;17.73;;;9.90;;
30185;SDS011;31152;49.190;8.122;2023-12-20T01:10:14;14.45;;;8.55;;
30185;SDS011;31152;49.190;8.122;2023-12-20T01:12:41;14.63;;;8.02;;
30185;SDS011;31152;49.190;8.122;2023-12-20T01:15:10;13.02;;;7.93;;
30185;SDS011;31152;49.190;8.122;2023-12-20T01:17:37;12.77;;;7.47;;
30185;SDS011;31152;49.190;8.122;2023-12-20T01:20:04;14.07;;;7.28;;
30185;SDS011;31152;49.190;8.122;2023-12-20T01:22:32;9.60;;;5.47;;
30185;SDS011;31152;49.190;8.122;2023-12-20T01:25:01;6.97;;;4.00;;
30185;SDS011;31152;49.190;8.122;2023-12-20T01:27:29;3.38;;;1.70;;
30185;SDS011;31152;49.190;8.122;2023-12-20T01:29:58;1.63;;;1.20;;
30185;SDS011;31152;49.190;8.122;2023-12-20T01:32:24;1.60;;;1.10;;
30185;SDS011;31152;49.190;8.122;2023-12-20T01:34:54;3.38;;;2.03;;
30185;SDS011;31152;49.190;8.122;2023-12-20T01:37:24;1.20;;;0.98;;
30185;SDS011;31152;49.190;8.122;2023-12-20T01:39:52;1.08;;;0.80;;
30185;SDS011;31152;49.190;8.122;2023-12-20T01:42:19;3.40;;;0.60;;
30185;SDS011;31152;49.190;8.122;2023-12-20T01:44:51;0.95;;;0.65;;
30185;SDS011;31152;49.190;8.122;2023-12-20T01:47:20;0.50;;;0.40;;
30185;SDS011;31152;49.190;8.122;2023-12-20T01:49:48;5.60;;;0.40;;
30185;SDS011;31152;49.190;8.122;2023-12-20T01:52:20;0.30;;;0.30;;
30185;SDS011;31152;49.190;8.122;2023-12-20T01:54:47;0.40;;;0.40;;
30185;SDS011;31152;49.190;8.122;2023-12-20T01:57:14;0.30;;;0.30;;
30185;SDS011;31152;49.190;8.122;2023-12-20T01:59:44;0.52;;;0.40;;
30185;SDS011;31152;49.190;8.122;2023-12-20T02:02:13;0.30;;;0.30;;
30185;SDS011;31152;49.190;8.122;2023-12-20T02:04:40;0.40;;;0.38;;
30185;SDS011;31152;49.190;8.122;2023-12-20T02:07:07;3.67;;;0.20;;
30185;SDS011;31152;49.190;8.122;2023-12-20T02:09:36;0.30;;;0.20;;
30185;SDS011;31152;49.190;8.122;2023-12-20T02:12:04;0.32;;;0.30;;
30185;SDS011;31152;49.190;8.122;2023-12-20T02:14:31;0.73;;;0.30;;
30185;SDS011;31152;49.190;8.122;2023-12-20T02:16:58;0.50;;;0.35;;
30185;SDS011;31152;49.190;8.122;2023-12-20T02:19:25;0.57;;;0.50;;
30185;SDS011;31152;49.190;8.122;2023-12-20T02:22:04;0.65;;;0.50;;
30185;SDS011;31152;49.190;8.122;2023-12-20T02:24:37;0.90;;;0.60;;
30185;SDS011;31152;49.190;8.122;2023-12-20T02:27:05;1.65;;;0.80;;
30185;SDS011;31152;49.190;8.122;2023-12-20T02:29:36;0.85;;;0.40;;
30185;SDS011;31152;49.190;8.122;2023-12-20T02:32:02;0.50;;;0.40;;
30185;SDS011;31152;49.190;8.122;2023-12-20T02:34:29;2.53;;;0.57;;
30185;SDS011;31152;49.190;8.122;2023-12-20T02:36:59;1.00;;;0.57;;
30185;SDS011;31152;49.190;8.122;2023-12-20T02:39:26;0.70;;;0.50;;
30185;SDS011;31152;49.190;8.122;2023-12-20T02:41:53;0.43;;;0.35;;
30185;SDS011;31152;49.190;8.122;2023-12-20T02:44:19;0.88;;;0.40;;
30185;SDS011;31152;49.190;8.122;2023-12-20T02:46:46;0.55;;;0.43;;
30185;SDS011;31152;49.190;8.122;2023-12-20T02:49:13;1.88;;;0.30;;
30185;SDS011;31152;49.190;8.122;2023-12-20T02:51:40;1.17;;;0.40;;
30185;SDS011;31152;49.190;8.122;2023-12-20T02:54:06;1.05;;;0.30;;
30185;SDS011;31152;49.190;8.122;2023-12-20T02:56:33;0.40;;;0.35;;
30185;SDS011;31152;49.190;8.122;2023-12-20T02:59:00;0.90;;;0.50;;
30185;SDS011;31152;49.190;8.122;2023-12-20T03:01:28;0.68;;;0.35;;
30185;SDS011;31152;49.190;8.122;2023-12-20T03:03:56;0.43;;;0.40;;
30185;SDS011;31152;49.190;8.122;2023-12-20T03:06:23;0.40;;;0.35;;
30185;SDS011;31152;49.190;8.122;2023-12-20T03:08:50;0.40;;;0.40;;
30185;SDS011;31152;49.190;8.122;2023-12-20T03:11:17;0.40;;;0.40;;
30185;SDS011;31152;49.190;8.122;2023-12-20T03:13:44;1.95;;;0.30;;
30185;SDS011;31152;49.190;8.122;2023-12-20T03:16:13;0.70;;;0.40;;
30185;SDS011;31152;49.190;8.122;2023-12-20T03:18:42;0.35;;;0.35;;
30185;SDS011;31152;49.190;8.122;2023-12-20T03:21:11;0.45;;;0.40;;
30185;SDS011;31152;49.190;8.122;2023-12-20T03:23:38;0.80;;;0.60;;
30185;SDS011;31152;49.190;8.122;2023-12-20T03:26:09;0.82;;;0.60;;
30185;SDS011;31152;49.190;8.122;2023-12-20T03:28:36;0.68;;;0.68;;
30185;SDS011;31152;49.190;8.122;2023-12-20T03:31:03;0.60;;;0.55;;
30185;SDS011;31152;49.190;8.122;2023-12-20T03:33:30;1.15;;;0.50;;
30185;SDS011;31152;49.190;8.122;2023-12-20T03:35:56;0.90;;;0.50;;
30185;SDS011;31152;49.190;8.122;2023-12-20T03:38:23;0.90;;;0.75;;
30185;SDS011;31152;49.190;8.122;2023-12-20T03:40:50;1.65;;;0.68;;
30185;SDS011;31152;49.190;8.122;2023-12-20T03:43:17;0.60;;;0.60;;
30185;SDS011;31152;49.190;8.122;2023-12-20T03:45:44;0.80;;;0.77;;
30185;SDS011;31152;49.190;8.122;2023-12-20T03:48:11;0.68;;;0.68;;
30185;SDS011;31152;49.190;8.122;2023-12-20T03:50:38;1.08;;;0.93;;
30185;SDS011;31152;49.190;8.122;2023-12-20T03:53:07;2.53;;;0.82;;
30185;SDS011;31152;49.190;8.122;2023-12-20T03:55:34;1.65;;;1.10;;
30185;SDS011;31152;49.190;8.122;2023-12-20T03:58:03;1.58;;;1.27;;
30185;SDS011;31152;49.190;8.122;2023-12-20T04:00:32;2.75;;;1.40;;
30185;SDS011;31152;49.190;8.122;2023-12-20T04:03:01;1.90;;;1.70;;
30185;SDS011;31152;49.190;8.122;2023-12-20T04:05:28;2.80;;;1.50;;
30185;SDS011;31152;49.190;8.122;2023-12-20T04:07:57;1.77;;;1.55;;
30185;SDS011;31152;49.190;8.122;2023-12-20T04:10:25;2.97;;;1.88;;
30185;SDS011;31152;49.190;8.122;2023-12-20T04:12:52;2.10;;;1.70;;
30185;SDS011;31152;49.190;8.122;2023-12-20T04:15:19;2.00;;;1.55;;
30185;SDS011;31152;49.190;8.122;2023-12-20T04:17:46;2.60;;;1.80;;
30185;SDS011;31152;49.190;8.122;2023-12-20T04:20:13;3.72;;;2.20;;
30185;SDS011;31152;49.190;8.122;2023-12-20T04:22:42;2.88;;;2.03;;
30185;SDS011;31152;49.190;8.122;2023-12-20T04:25:11;2.53;;;1.80;;
30185;SDS011;31152;49.190;8.122;2023-12-20T04:27:38;2.47;;;2.15;;
30185;SDS011;31152;49.190;8.122;2023-12-20T04:30:05;2.45;;;1.90;;
30185;SDS011;31152;49.190;8.122;2023-12-20T04:32:32;3.38;;;2.40;;
30185;SDS011;31152;49.190;8.122;2023-12-20T04:34:59;5.50;;;2.13;;
30185;SDS011;31152;49.190;8.122;2023-12-20T04:37:28;2.40;;;2.10;;
30185;SDS011;31152;49.190;8.122;2023-12-20T04:39:55;2.58;;;1.98;;
30185;SDS011;31152;49.190;8.122;2023-12-20T04:42:21;3.10;;;2.20;;
30185;SDS011;31152;49.190;8.122;2023-12-20T04:44:48;3.30;;;2.65;;
30185;SDS011;31152;49.190;8.122;2023-12-20T04:47:18;4.03;;;2.70;;
30185;SDS011;31152;49.190;8.122;2023-12-20T04:49:44;3.72;;;2.60;;
30185;SDS011;31152;49.190;8.122;2023-12-20T04:52:11;4.55;;;3.00;;
30185;SDS011;31152;49.190;8.122;2023-12-20T04:54:38;5.05;;;3.00;;
30185;SDS011;31152;49.190;8.122;2023-12-20T04:57:08;5.22;;;3.15;;
30185;SDS011;31152;49.190;8.122;2023-12-20T04:59:35;5.53;;;3.10;;
30185;SDS011;31152;49.190;8.122;2023-12-20T05:02:02;5.00;;;3.45;;
30185;SDS011;31152;49.190;8.122;2023-12-20T05:04:29;4.13;;;3.03;;
30185;SDS011;31152;49.190;8.122;2023-12-20T05:06:55;6.65;;;3.38;;
30185;SDS011;31152;49.190;8.122;2023-12-20T05:09:22;4.40;;;3.00;;
30185;SDS011;31152;49.190;8.122;2023-12-20T05:11:49;4.82;;;3.10;;
30185;SDS011;31152;49.190;8.122;2023-12-20T05:14:16;4.40;;;3.08;;
30185;SDS011;31152;49.190;8.122;2023-12-20T05:16:43;3.63;;;2.50;;
30185;SDS011;31152;49.190;8.122;2023-12-20T05:19:09;4.55;;;2.92;;
30185;SDS011;31152;49.190;8.122;2023-12-20T05:21:41;4.05;;;2.65;;
30185;SDS011;31152;49.190;8.122;2023-12-20T05:24:08;3.90;;;2.45;;
30185;SDS011;31152;49.190;8.122;2023-12-20T05:26:34;3.83;;;2.55;;
30185;SDS011;31152;49.190;8.122;2023-12-20T05:29:01;2.85;;;2.22;;
30185;SDS011;31152;49.190;8.122;2023-12-20T05:31:28;3.45;;;2.25;;
30185;SDS011;31152;49.190;8.122;2023-12-20T05:33:55;4.13;;;2.55;;
30185;SDS011;31152;49.190;8.122;2023-12-20T05:36:22;3.42;;;2.47;;
30185;SDS011;31152;49.190;8.122;2023-12-20T05:38:48;3.53;;;2.60;;
30185;SDS011;31152;49.190;8.122;2023-12-20T05:41:17;5.68;;;3.20;;
30185;SDS011;31152;49.190;8.122;2023-12-20T05:43:44;4.90;;;3.60;;
30185;SDS011;31152;49.190;8.122;2023-12-20T05:46:13;4.25;;;3.38;;
30185;SDS011;31152;49.190;8.122;2023-12-20T05:48:42;5.13;;;3.17;;
30185;SDS011;31152;49.190;8.122;2023-12-20T05:51:12;4.80;;;3.40;;
30185;SDS011;31152;49.190;8.122;2023-12-20T05:53:41;4.50;;;3.25;;
30185;SDS011;31152;49.190;8.122;2023-12-20T05:56:08;4.38;;;3.10;;
30185;SDS011;31152;49.190;8.122;2023-12-20T05:58:34;4.70;;;3.15;;
30185;SDS011;31152;49.190;8.122;2023-12-20T06:01:05;6.38;;;2.83;;
30185;SDS011;31152;49.190;8.122;2023-12-20T06:03:32;3.22;;;2.45;;
30185;SDS011;31152;49.190;8.122;2023-12-20T06:05:58;3.08;;;2.35;;
30185;SDS011;31152;49.190;8.122;2023-12-20T06:08:41;3.55;;;2.05;;
30185;SDS011;31152;49.190;8.122;2023-12-20T06:11:09;3.55;;;2.28;;
30185;SDS011;31152;49.190;8.122;2023-12-20T06:13:36;5.53;;;2.50;;
30185;SDS011;31152;49.190;8.122;2023-12-20T06:16:04;4.15;;;2.78;;
30185;SDS011;31152;49.190;8.122;2023-12-20T06:18:33;4.05;;;2.50;;
30185;SDS011;31152;49.190;8.122;2023-12-20T06:20:59;5.32;;;2.80;;
30185;SDS011;31152;49.190;8.122;2023-12-20T06:23:26;4.07;;;2.50;;
30185;SDS011;31152;49.190;8.122;2023-12-20T06:25:54;3.38;;;2.47;;
30185;SDS011;31152;49.190;8.122;2023-12-20T06:28:23;3.15;;;2.30;;
30185;SDS011;31152;49.190;8.122;2023-12-20T06:30:50;3.60;;;2.33;;
30185;SDS011;31152;49.190;8.122;2023-12-20T06:33:18;3.30;;;2.28;;
30185;SDS011;31152;49.190;8.122;2023-12-20T06:35:48;4.60;;;2.58;;
30185;SDS011;31152;49.190;8.122;2023-12-20T06:38:17;8.07;;;2.63;;
30185;SDS011;31152;49.190;8.122;2023-12-20T06:40:46;4.47;;;2.00;;
30185;SDS011;31152;49.190;8.122;2023-12-20T06:43:13;3.33;;;2.42;;
30185;SDS011;31152;49.190;8.122;2023-12-20T06:46:00;3.75;;;2.10;;
30185;SDS011;31152;49.190;8.122;2023-12-20T06:48:29;4.53;;;1.73;;
30185;SDS011;31152;49.190;8.122;2023-12-20T06:50:56;2.97;;;1.67;;
30185;SDS011;31152;49.190;8.122;2023-12-20T06:53:23;4.38;;;2.17;;
30185;SDS011;31152;49.190;8.122;2023-12-20T06:55:49;2.88;;;1.50;;
30185;SDS011;31152;49.190;8.122;2023-12-20T06:58:18;3.38;;;1.60;;
30185;SDS011;31152;49.190;8.122;2023-12-20T07:00:45;4.78;;;1.45;;
30185;SDS011;31152;49.190;8.122;2023-12-20T07:03:15;2.40;;;1.35;;
30185;SDS011;31152;49.190;8.122;2023-12-20T07:05:41;5.22;;;1.55;;
30185;SDS011;31152;49.190;8.122;2023-12-20T07:08:08;4.13;;;1.63;;
30185;SDS011;31152;49.190;8.122;2023-12-20T07:10:35;4.85;;;1.98;;
30185;SDS011;31152;49.190;8.122;2023-12-20T07:13:04;6.82;;;2.28;;
30185;SDS011;31152;49.190;8.122;2023-12-20T07:15:31;4.22;;;1.73;;
30185;SDS011;31152;49.190;8.122;2023-12-20T07:17:58;3.97;;;2.00;;
30185;SDS011;31152;49.190;8.122;2023-12-20T07:20:27;4.57;;;2.30;;
30185;SDS011;31152;49.190;8.122;2023-12-20T07:22:56;8.10;;;2.05;;
30185;SDS011;31152;49.190;8.122;2023-12-20T07:25:25;3.92;;;2.05;;
30185;SDS011;31152;49.190;8.122;2023-12-20T07:27:52;7.95;;;1.98;;
30185;SDS011;31152;49.190;8.122;2023-12-20T07:30:19;3.65;;;2.42;;
30185;SDS011;31152;49.190;8.122;2023-12-20T07:32:46;6.75;;;2.60;;
30185;SDS011;31152;49.190;8.122;2023-12-20T07:35:13;4.10;;;2.22;;
30185;SDS011;31152;49.190;8.122;2023-12-20T07:37:43;10.85;;;2.85;;
30185;SDS011;31152;49.190;8.122;2023-12-20T07:40:10;6.68;;;2.45;;
30185;SDS011;31152;49.190;8.122;2023-12-20T07:42:37;4.32;;;2.60;;
30185;SDS011;31152;49.190;8.122;2023-12-20T07:45:06;4.68;;;2.67;;
30185;SDS011;31152;49.190;8.122;2023-12-20T07:47:33;7.13;;;2.45;;
30185;SDS011;31152;49.190;8.122;2023-12-20T07:50:00;6.65;;;2.40;;
30185;SDS011;31152;49.190;8.122;2023-12-20T07:52:27;5.20;;;2.25;;
30185;SDS011;31152;49.190;8.122;2023-12-20T07:54:54;5.03;;;2.08;;
30185;SDS011;31152;49.190;8.122;2023-12-20T07:57:21;9.15;;;2.33;;
30185;SDS011;31152;49.190;8.122;2023-12-20T07:59:48;7.53;;;2.17;;
30185;SDS011;31152;49.190;8.122;2023-12-20T08:02:15;4.72;;;2.15;;
30185;SDS011;31152;49.190;8.122;2023-12-20T08:04:44;7.50;;;2.03;;
30185;SDS011;31152;49.190;8.122;2023-12-20T08:07:11;9.38;;;2.03;;
30185;SDS011;31152;49.190;8.122;2023-12-20T08:09:41;6.45;;;1.92;;
30185;SDS011;31152;49.190;8.122;2023-12-20T08:12:12;4.55;;;1.85;;
30185;SDS011;31152;49.190;8.122;2023-12-20T08:14:39;10.13;;;1.95;;
30185;SDS011;31152;49.190;8.122;2023-12-20T08:17:08;6.78;;;1.80;;
30185;SDS011;31152;49.190;8.122;2023-12-20T08:19:35;4.55;;;1.60;;
30185;SDS011;31152;49.190;8.122;2023-12-20T08:22:04;3.63;;;1.42;;
30185;SDS011;31152;49.190;8.122;2023-12-20T08:24:31;8.63;;;1.60;;
30185;SDS011;31152;49.190;8.122;2023-12-20T08:26:58;10.27;;;2.80;;
30185;SDS011;31152;49.190;8.122;2023-12-20T08:29:25;7.65;;;1.80;;
30185;SDS011;31152;49.190;8.122;2023-12-20T08:31:52;9.05;;;1.55;;
30185;SDS011;31152;49.190;8.122;2023-12-20T08:34:25;6.55;;;1.45;;
30185;SDS011;31152;49.190;8.122;2023-12-20T08:36:54;8.38;;;1.30;;
30185;SDS011;31152;49.190;8.122;2023-12-20T08:39:21;8.73;;;1.95;;
30185;SDS011;31152;49.190;8.122;2023-12-20T08:41:48;4.32;;;1.23;;
30185;SDS011;31152;49.190;8.122;2023-12-20T08:44:15;5.65;;;1.30;;
30185;SDS011;31152;49.190;8.122;2023-12-20T08:46:42;10.43;;;1.75;;
30185;SDS011;31152;49.190;8.122;2023-12-20T08:49:11;13.60;;;1.83;;
30185;SDS011;31152;49.190;8.122;2023-12-20T08:51:38;10.20;;;1.80;;
30185;SDS011;31152;49.190;8.122;2023-12-20T08:54:08;12.35;;;1.60;;
30185;SDS011;31152;49.190;8.122;2023-12-20T08:56:35;6.97;;;1.50;;
30185;SDS011;31152;49.190;8.122;2023-12-20T08:59:02;7.35;;;1.15;;
30185;SDS011;31152;49.190;8.122;2023-12-20T09:01:29;11.38;;;1.55;;
30185;SDS011;31152;49.190;8.122;2023-12-20T09:03:56;5.95;;;1.48;;
30185;SDS011;31152;49.190;8.122;2023-12-20T09:06:25;5.35;;;1.38;;
30185;SDS011;31152;49.190;8.122;2023-12-20T09:08:52;8.43;;;1.33;;
30185;SDS011;31152;49.190;8.122;2023-12-20T09:11:24;8.82;;;1.80;;
30185;SDS011;31152;49.190;8.122;2023-12-20T09:13:53;7.47;;;1.88;;
30185;SDS011;31152;49.190;8.122;2023-12-20T09:16:22;7.93;;;1.50;;
30185;SDS011;31152;49.190;8.122;2023-12-20T09:18:50;5.30;;;1.27;;
30185;SDS011;31152;49.190;8.122;2023-12-20T09:21:18;9.52;;;1.40;;
30185;SDS011;31152;49.190;8.122;2023-12-20T09:23:45;8.57;;;1.42;;
30185;SDS011;31152;49.190;8.122;2023-12-20T09:26:11;9.88;;;1.73;;
30185;SDS011;31152;49.190;8.122;2023-12-20T09:28:38;10.07;;;1.48;;
30185;SDS011;31152;49.190;8.122;2023-12-20T09:31:10;6.22;;;1.40;;
30185;SDS011;31152;49.190;8.122;2023-12-20T09:33:37;10.40;;;1.50;;
30185;SDS011;31152;49.190;8.122;2023-12-20T09:36:04;4.53;;;1.40;;
30185;SDS011;31152;49.190;8.122;2023-12-20T09:38:31;8.52;;;1.83;;
30185;SDS011;31152;49.190;8.122;2023-12-20T09:40:58;8.38;;;2.03;;
30185;SDS011;31152;49.190;8.122;2023-12-20T09:43:28;5.35;;;1.33;;
30185;SDS011;31152;49.190;8.122;2023-12-20T09:45:57;11.23;;;2.00;;
30185;SDS011;31152;49.190;8.122;2023-12-20T09:48:27;14.38;;;2.97;;
30185;SDS011;31152;49.190;8.122;2023-12-20T09:50:55;7.85;;;1.58;;
30185;SDS011;31152;49.190;8.122;2023-12-20T09:53:22;14.25;;;2.50;;
30185;SDS011;31152;49.190;8.122;2023-12-20T09:55:58;9.10;;;1.60;;
30185;SDS011;31152;49.190;8.122;2023-12-20T09:58:26;11.25;;;1.50;;
30185;SDS011;31152;49.190;8.122;2023-12-20T10:00:53;8.18;;;1.67;;
30185;SDS011;31152;49.190;8.122;2023-12-20T10:03:23;10.38;;;1.70;;
30185;SDS011;31152;49.190;8.122;2023-12-20T10:05:52;12.05;;;1.80;;
30185;SDS011;31152;49.190;8.122;2023-12-20T10:08:22;7.03;;;1.50;;
30185;SDS011;31152;49.190;8.122;2023-12-20T10:10:51;7.78;;;2.20;;
30185;SDS011;31152;49.190;8.122;2023-12-20T10:13:18;9.27;;;1.70;;
30185;SDS011;31152;49.190;8.122;2023-12-20T10:15:45;7.57;;;1.75;;
30185;SDS011;31152;49.190;8.122;2023-12-20T10:18:12;5.40;;;1.40;;
30185;SDS011;31152;49.190;8.122;2023-12-20T10:20:40;9.00;;;1.63;;
30185;SDS011;31152;49.190;8.122;2023-12-20T10:23:08;8.38;;;1.55;;
30185;SDS011;31152;49.190;8.122;2023-12-20T10:25:36;11.73;;;2.30;;
30185;SDS011;31152;49.190;8.122;2023-12-20T10:28:12;7.05;;;1.70;;
30185;SDS011;31152;49.190;8.122;2023-12-20T10:30:41;6.13;;;1.30;;
30185;SDS011;31152;49.190;8.122;2023-12-20T10:33:09;11.45;;;1.70;;
30185;SDS011;31152;49.190;8.122;2023-12-20T10:35:38;10.88;;;2.30;;
30185;SDS011;31152;49.190;8.122;2023-12-20T10:38:12;14.88;;;2.42;;
30185;SDS011;31152;49.190;8.122;2023-12-20T10:40:41;8.85;;;1.33;;
30185;SDS011;31152;49.190;8.122;2023-12-20T10:43:11;11.98;;;2.22;;
30185;SDS011;31152;49.190;8.122;2023-12-20T10:45:41;11.23;;;2.53;;
30185;SDS011;31152;49.190;8.122;2023-12-20T10:48:13;7.60;;;2.00;;
30185;SDS011;31152;49.190;8.122;2023-12-20T10:50:42;11.88;;;2.90;;
30185;SDS011;31152;49.190;8.122;2023-12-20T10:53:10;11.80;;;2.03;;
30185;SDS011;31152;49.190;8.122;2023-12-20T10:55:39;9.15;;;1.90;;
30185;SDS011;31152;49.190;8.122;2023-12-20T10:58:07;10.10;;;1.70;;
30185;SDS011;31152;49.190;8.122;2023-12-20T11:00:41;6.57;;;2.08;;
30185;SDS011;31152;49.190;8.122;2023-12-20T11:03:12;8.57;;;2.13;;
30185;SDS011;31152;49.190;8.122;2023-12-20T11:10:56;9.47;;;2.33;;
30185;SDS011;31152;49.190;8.122;2023-12-20T11:13:43;13.25;;;2.20;;
30185;SDS011;31152;49.190;8.122;2023-12-20T11:16:20;10.93;;;2.55;;
30185;SDS011;31152;49.190;8.122;2023-12-20T11:18:52;11.02;;;2.22;;
30185;SDS011;31152;49.190;8.122;2023-12-20T11:21:19;11.05;;;2.25;;
30185;SDS011;31152;49.190;8.122;2023-12-20T11:23:47;11.10;;;1.80;;
30185;SDS011;31152;49.190;8.122;2023-12-20T11:26:16;7.78;;;2.22;;
30185;SDS011;31152;49.190;8.122;2023-12-20T11:28:48;14.40;;;2.67;;
30185;SDS011;31152;49.190;8.122;2023-12-20T11:31:15;11.20;;;2.35;;
30185;SDS011;31152;49.190;8.122;2023-12-20T11:33:42;15.05;;;2.42;;
30185;SDS011;31152;49.190;8.122;2023-12-20T11:36:15;8.57;;;2.20;;
30185;SDS011;31152;49.190;8.122;2023-12-20T11:38:57;7.10;;;2.05;;
30185;SDS011;31152;49.190;8.122;2023-12-20T11:41:26;11.38;;;2.05;;
30185;SDS011;31152;49.190;8.122;2023-12-20T11:43:53;10.82;;;2.35;;
30185;SDS011;31152;49.190;8.122;2023-12-20T11:46:20;11.38;;;2.65;;
30185;SDS011;31152;49.190;8.122;2023-12-20T11:48:47;8.75;;;2.13;;
30185;SDS011;31152;49.190;8.122;2023-12-20T11:51:15;13.43;;;2.63;;
30185;SDS011;31152;49.190;8.122;2023-12-20T11:53:42;11.48;;;2.00;;
30185;SDS011;31152;49.190;8.122;2023-12-20T11:56:09;12.07;;;2.30;;
30185;SDS011;31152;49.190;8.122;2023-12-20T11:58:39;8.02;;;2.30;;
30185;SDS011;31152;49.190;8.122;2023-12-20T12:01:06;13.93;;;2.58;;
30185;SDS011;31152;49.190;8.122;2023-12-20T12:03:35;12.52;;;2.00;;
30185;SDS011;31152;49.190;8.122;2023-12-20T12:06:02;9.30;;;2.47;;
30185;SDS011;31152;49.190;8.122;2023-12-20T12:08:31;8.15;;;1.67;;
30185;SDS011;31152;49.190;8.122;2023-12-20T12:11:01;8.15;;;2.30;;
30185;SDS011;31152;49.190;8.122;2023-12-20T12:13:28;9.65;;;2.17;;
30185;SDS011;31152;49.190;8.122;2023-12-20T12:15:58;15.02;;;2.30;;
30185;SDS011;31152;49.190;8.122;2023-12-20T12:18:25;15.18;;;2.88;;
30185;SDS011;31152;49.190;8.122;2023-12-20T12:21:01;11.77;;;2.33;;
30185;SDS011;31152;49.190;8.122;2023-12-20T12:23:35;11.63;;;1.95;;
30185;SDS011;31152;49.190;8.122;2023-12-20T12:26:05;13.25;;;2.40;;
30185;SDS011;31152;49.190;8.122;2023-12-20T12:28:34;15.20;;;2.30;;
30185;SDS011;31152;49.190;8.122;2023-12-20T12:31:01;12.65;;;2.95;;
30185;SDS011;31152;49.190;8.122;2023-12-20T12:33:30;13.02;;;2.13;;
30185;SDS011;31152;49.190;8.122;2023-12-20T12:35:58;6.80;;;2.67;;
30185;SDS011;31152;49.190;8.122;2023-12-20T12:38:28;12.68;;;2.30;;
30185;SDS011;31152;49.190;8.122;2023-12-20T12:40:56;17.33;;;2.95;;
30185;SDS011;31152;49.190;8.122;2023-12-20T12:43:24;13.68;;;2.50;;
30185;SDS011;31152;49.190;8.122;2023-12-20T12:45:50;9.77;;;1.88;;
30185;SDS011;31152;49.190;8.122;2023-12-20T12:48:17;10.85;;;2.03;;
30185;SDS011;31152;49.190;8.122;2023-12-20T12:50:48;11.02;;;2.10;;
30185;SDS011;31152;49.190;8.122;2023-12-20T12:53:15;14.48;;;2.10;;
30185;SDS011;31152;49.190;8.122;2023-12-20T12:55:42;9.32;;;2.65;;
30185;SDS011;31152;49.190;8.122;2023-12-20T12:58:08;12.38;;;2.33;;
30185;SDS011;31152;49.190;8.122;2023-12-20T13:00:38;15.98;;;2.67;;
30185;SDS011;31152;49.190;8.122;2023-12-20T13:03:05;7.00;;;1.70;;
30185;SDS011;31152;49.190;8.122;2023-12-20T13:05:32;17.48;;;2.55;;
30185;SDS011;31152;49.190;8.122;2023-12-20T13:08:05;7.43;;;1.67;;
30185;SDS011;31152;49.190;8.122;2023-12-20T13:10:32;10.77;;;1.80;;
30185;SDS011;31152;49.190;8.122;2023-12-20T13:13:00;7.45;;;1.85;;
30185;SDS011;31152;49.190;8.122;2023-12-20T13:15:27;12.50;;;2.35;;
30185;SDS011;31152;49.190;8.122;2023-12-20T13:17:56;9.68;;;2.10;;
30185;SDS011;31152;49.190;8.122;2023-12-20T13:20:23;12.98;;;2.10;;
30185;SDS011;31152;49.190;8.122;2023-12-20T13:22:53;11.73;;;2.75;;
30185;SDS011;31152;49.190;8.122;2023-12-20T13:25:21;10.95;;;1.92;;
30185;SDS011;31152;49.190;8.122;2023-12-20T13:27:53;12.07;;;1.98;;
30185;SDS011;31152;49.190;8.122;2023-12-20T13:30:20;15.57;;;1.92;;
30185;SDS011;31152;49.190;8.122;2023-12-20T13:32:47;16.85;;;2.15;;
30185;SDS011;31152;49.190;8.122;2023-12-20T13:35:15;10.18;;;1.85;;
30185;SDS011;31152;49.190;8.122;2023-12-20T13:37:44;13.57;;;2.70;;
30185;SDS011;31152;49.190;8.122;2023-12-20T13:40:14;15.40;;;2.90;;
30185;SDS011;31152;49.190;8.122;2023-12-20T13:42:41;11.73;;;2.17;;
30185;SDS011;31152;49.190;8.122;2023-12-20T13:45:08;12.82;;;2.53;;
30185;SDS011;31152;49.190;8.122;2023-12-20T13:47:35;15.65;;;2.40;;
30185;SDS011;31152;49.190;8.122;2023-12-20T13:50:03;8.45;;;1.83;;
30185;SDS011;31152;49.190;8.122;2023-12-20T13:52:31;10.32;;;1.75;;
30185;SDS011;31152;49.190;8.122;2023-12-20T13:55:00;11.18;;;2.00;;
30185;SDS011;31152;49.190;8.122;2023-12-20T13:57:27;14.50;;;3.28;;
30185;SDS011;31152;49.190;8.122;2023-12-20T14:00:16;13.43;;;2.58;;
30185;SDS011;31152;49.190;8.122;2023-12-20T14:02:43;10.57;;;2.20;;
30185;SDS011;31152;49.190;8.122;2023-12-20T14:05:10;9.30;;;1.98;;
30185;SDS011;31152;49.190;8.122;2023-12-20T14:07:37;13.07;;;2.30;;
30185;SDS011;31152;49.190;8.122;2023-12-20T14:10:04;15.80;;;1.95;;
30185;SDS011;31152;49.190;8.122;2023-12-20T14:12:34;11.10;;;2.67;;
30185;SDS011;31152;49.190;8.122;2023-12-20T14:15:04;11.35;;;1.92;;
30185;SDS011;31152;49.190;8.122;2023-12-20T14:17:35;9.90;;;1.67;;
30185;SDS011;31152;49.190;8.122;2023-12-20T14:20:02;10.68;;;2.20;;
30185;SDS011;31152;49.190;8.122;2023-12-20T14:22:33;9.55;;;1.52;;
30185;SDS011;31152;49.190;8.122;2023-12-20T14:25:00;11.50;;;1.48;;
30185;SDS011;31152;49.190;8.122;2023-12-20T14:27:32;8.10;;;1.60;;
30185;SDS011;31152;49.190;8.122;2023-12-20T14:30:01;9.80;;;1.40;;
30185;SDS011;31152;49.190;8.122;2023-12-20T14:32:29;10.23;;;1.90;;
30185;SDS011;31152;49.190;8.122;2023-12-20T14:34:56;8.05;;;1.70;;
30185;SDS011;31152;49.190;8.122;2023-12-20T14:37:25;12.35;;;2.63;;
30185;SDS011;31152;49.190;8.122;2023-12-20T14:39:53;10.27;;;1.75;;
30185;SDS011;31152;49.190;8.122;2023-12-20T14:42:22;14.65;;;2.45;;
30185;SDS011;31152;49.190;8.122;2023-12-20T14:44:48;8.23;;;1.40;;
30185;SDS011;31152;49.190;8.122;2023-12-20T14:47:16;9.07;;;1.70;;
30185;SDS011;31152;49.190;8.122;2023-12-20T14:49:42;10.70;;;1.70;;
30185;SDS011;31152;49.190;8.122;2023-12-20T14:52:09;10.27;;;1.48;;
30185;SDS011;31152;49.190;8.122;2023-12-20T14:54:37;11.45;;;2.08;;